createdAt,value
2023-04-30T00:00:08.270Z,1014.79
2023-04-30T00:01:08.214Z,1014.77
2023-04-30T00:02:08.256Z,1014.76
2023-04-30T00:03:08.317Z,1014.83
2023-04-30T00:04:08.227Z,1014.75
2023-04-30T00:05:08.154Z,1014.82
2023-04-30T00:06:08.225Z,1014.83
2023-04-30T00:07:08.137Z,1014.80
2023-04-30T00:08:08.126Z,1014.82
2023-04-30T00:09:08.143Z,1014.77
2023-04-30T00:10:08.102Z,1014.83
2023-04-30T00:11:08.118Z,1014.82
2023-04-30T00:12:08.091Z,1014.88
2023-04-30T00:13:08.072Z,1014.89
2023-04-30T00:14:08.076Z,1014.92
2023-04-30T00:15:08.057Z,1014.92
2023-04-30T00:16:08.078Z,1014.92
2023-04-30T00:17:08.051Z,1014.90
2023-04-30T00:18:08.929Z,1014.93
2023-04-30T00:19:08.007Z,1014.93
2023-04-30T00:20:08.074Z,1014.94
2023-04-30T00:21:08.000Z,1014.98
2023-04-30T00:22:07.980Z,1014.98
2023-04-30T00:23:07.979Z,1014.97
2023-04-30T00:24:07.980Z,1014.98
2023-04-30T00:25:07.967Z,1015.00
2023-04-30T00:26:07.925Z,1014.98
2023-04-30T00:27:08.826Z,1014.96
2023-04-30T00:28:07.905Z,1014.99
2023-04-30T00:29:07.890Z,1014.96
2023-04-30T00:30:07.885Z,1015.01
2023-04-30T00:31:07.873Z,1014.98
2023-04-30T00:32:07.915Z,1015.00
2023-04-30T00:33:07.943Z,1014.99
2023-04-30T00:34:07.834Z,1015.02
2023-04-30T00:35:07.823Z,1015.05
2023-04-30T00:36:07.821Z,1015.05
2023-04-30T00:37:07.821Z,1015.07
2023-04-30T00:38:07.795Z,1015.08
2023-04-30T00:39:07.787Z,1015.07
2023-04-30T00:40:07.786Z,1015.09
2023-04-30T00:41:07.780Z,1015.09
2023-04-30T00:42:07.768Z,1015.09
2023-04-30T00:43:07.736Z,1015.07
2023-04-30T00:44:07.740Z,1015.04
2023-04-30T00:45:07.725Z,1015.09
2023-04-30T00:46:07.899Z,1015.10
2023-04-30T00:47:07.711Z,1015.11
2023-04-30T00:48:07.788Z,1015.14
2023-04-30T00:49:07.672Z,1015.14
2023-04-30T00:50:07.663Z,1015.13
2023-04-30T00:51:07.679Z,1015.17
2023-04-30T00:52:07.634Z,1015.20
2023-04-30T00:53:07.684Z,1015.19
2023-04-30T00:54:07.625Z,1015.22
2023-04-30T00:55:07.610Z,1015.25
2023-04-30T00:56:07.628Z,1015.19
2023-04-30T00:57:07.613Z,1015.24
2023-04-30T00:58:07.613Z,1015.28
2023-04-30T00:59:07.560Z,1015.31
2023-04-30T01:00:07.552Z,1015.29
2023-04-30T01:01:07.595Z,1015.33
2023-04-30T01:02:07.534Z,1015.40
2023-04-30T01:03:07.652Z,1015.38
2023-04-30T01:04:07.510Z,1015.39
2023-04-30T01:05:07.520Z,1015.39
2023-04-30T01:06:07.551Z,1015.39
2023-04-30T01:07:07.465Z,1015.41
2023-04-30T01:08:07.453Z,1015.39
2023-04-30T01:09:07.474Z,1015.41
2023-04-30T01:10:08.323Z,1015.42
2023-04-30T01:11:07.413Z,1015.43
2023-04-30T01:12:07.419Z,1015.51
2023-04-30T01:13:07.422Z,1015.49
2023-04-30T01:14:07.392Z,1015.47
2023-04-30T01:15:07.375Z,1015.52
2023-04-30T01:16:07.421Z,1015.50
2023-04-30T01:17:07.362Z,1015.52
2023-04-30T01:18:07.443Z,1015.51
2023-04-30T01:19:07.410Z,1015.50
2023-04-30T01:20:07.329Z,1015.54
2023-04-30T01:21:07.307Z,1015.54
2023-04-30T01:22:07.417Z,1015.54
2023-04-30T01:23:07.310Z,1015.53
2023-04-30T01:24:07.273Z,1015.58
2023-04-30T01:25:07.270Z,1015.54
2023-04-30T01:26:07.269Z,1015.51
2023-04-30T01:27:07.257Z,1015.58
2023-04-30T01:28:07.255Z,1015.53
2023-04-30T01:29:07.241Z,1015.55
2023-04-30T01:30:07.206Z,1015.55
2023-04-30T01:31:07.224Z,1015.52
2023-04-30T01:32:07.204Z,1015.56
2023-04-30T01:33:07.205Z,1015.55
2023-04-30T01:34:07.167Z,1015.57
2023-04-30T01:35:07.165Z,1015.55
2023-04-30T01:36:07.142Z,1015.58
2023-04-30T01:37:07.149Z,1015.58
2023-04-30T01:38:07.137Z,1015.59
2023-04-30T01:39:07.107Z,1015.60
2023-04-30T01:40:07.095Z,1015.59
2023-04-30T01:41:07.092Z,1015.62
2023-04-30T01:42:07.087Z,1015.59
2023-04-30T01:43:07.081Z,1015.60
2023-04-30T01:44:07.060Z,1015.62
2023-04-30T01:45:07.056Z,1015.63
2023-04-30T01:46:07.038Z,1015.60
2023-04-30T01:47:07.047Z,1015.61
2023-04-30T01:48:07.151Z,1015.63
2023-04-30T01:49:06.997Z,1015.66
2023-04-30T01:50:06.984Z,1015.69
2023-04-30T01:51:06.976Z,1015.67
2023-04-30T01:52:06.962Z,1015.72
2023-04-30T01:53:06.967Z,1015.73
2023-04-30T01:54:06.942Z,1015.72
2023-04-30T01:55:06.945Z,1015.73
2023-04-30T01:56:06.941Z,1015.73
2023-04-30T01:57:06.931Z,1015.75
2023-04-30T01:58:06.909Z,1015.79
2023-04-30T01:59:06.889Z,1015.75
2023-04-30T02:00:06.894Z,1015.79
2023-04-30T02:01:06.929Z,1015.80
2023-04-30T02:02:06.883Z,1015.79
2023-04-30T02:03:06.990Z,1015.82
2023-04-30T02:04:06.912Z,1015.86
2023-04-30T02:05:07.353Z,1015.84
2023-04-30T02:06:06.854Z,1015.88
2023-04-30T02:07:06.825Z,1015.84
2023-04-30T02:08:06.811Z,1015.91
2023-04-30T02:09:06.798Z,1015.92
2023-04-30T02:10:06.782Z,1015.90
2023-04-30T02:11:06.762Z,1015.91
2023-04-30T02:12:06.743Z,1015.93
2023-04-30T02:13:06.729Z,1015.96
2023-04-30T02:14:06.767Z,1016.00
2023-04-30T02:15:06.714Z,1015.98
2023-04-30T02:16:06.732Z,1016.05
2023-04-30T02:17:06.750Z,1016.07
2023-04-30T02:18:06.723Z,1016.04
2023-04-30T02:19:06.718Z,1016.07
2023-04-30T02:20:06.646Z,1016.09
2023-04-30T02:21:06.635Z,1016.07
2023-04-30T02:22:06.637Z,1016.04
2023-04-30T02:23:06.652Z,1016.09
2023-04-30T02:24:06.603Z,1016.03
2023-04-30T02:25:06.592Z,1016.01
2023-04-30T02:26:06.582Z,1016.05
2023-04-30T02:27:06.583Z,1016.08
2023-04-30T02:28:06.580Z,1016.08
2023-04-30T02:29:06.544Z,1016.17
2023-04-30T02:30:06.536Z,1016.18
2023-04-30T02:31:06.526Z,1016.17
2023-04-30T02:32:06.517Z,1016.17
2023-04-30T02:33:06.589Z,1016.18
2023-04-30T02:34:06.504Z,1016.15
2023-04-30T02:35:06.482Z,1016.19
2023-04-30T02:36:06.491Z,1016.17
2023-04-30T02:37:06.492Z,1016.20
2023-04-30T02:38:06.446Z,1016.16
2023-04-30T02:39:06.439Z,1016.18
2023-04-30T02:40:06.427Z,1016.19
2023-04-30T02:41:06.430Z,1016.20
2023-04-30T02:42:06.416Z,1016.29
2023-04-30T02:43:06.428Z,1016.26
2023-04-30T02:44:06.376Z,1016.26
2023-04-30T02:45:06.380Z,1016.29
2023-04-30T02:46:06.413Z,1016.28
2023-04-30T02:47:06.344Z,1016.28
2023-04-30T02:48:06.568Z,1016.22
2023-04-30T02:49:06.347Z,1016.26
2023-04-30T02:50:06.335Z,1016.25
2023-04-30T02:51:06.320Z,1016.26
2023-04-30T02:52:06.298Z,1016.30
2023-04-30T02:53:06.274Z,1016.33
2023-04-30T02:54:06.264Z,1016.37
2023-04-30T02:55:06.271Z,1016.35
2023-04-30T02:56:06.243Z,1016.37
2023-04-30T02:57:06.242Z,1016.37
2023-04-30T02:58:06.217Z,1016.33
2023-04-30T02:59:06.214Z,1016.33
2023-04-30T03:00:06.868Z,1016.33
2023-04-30T03:01:06.223Z,1016.33
2023-04-30T03:02:06.217Z,1016.35
2023-04-30T03:03:06.285Z,1016.34
2023-04-30T03:04:06.179Z,1016.39
2023-04-30T03:05:06.190Z,1016.39
2023-04-30T03:06:06.170Z,1016.38
2023-04-30T03:07:06.132Z,1016.42
2023-04-30T03:08:06.109Z,1016.41
2023-04-30T03:09:06.106Z,1016.38
2023-04-30T03:10:06.103Z,1016.41
2023-04-30T03:11:06.076Z,1016.44
2023-04-30T03:12:06.062Z,1016.43
2023-04-30T03:13:06.057Z,1016.50
2023-04-30T03:14:06.050Z,1016.48
2023-04-30T03:15:06.047Z,1016.50
2023-04-30T03:16:06.049Z,1016.48
2023-04-30T03:17:06.042Z,1016.49
2023-04-30T03:18:06.056Z,1016.51
2023-04-30T03:19:06.029Z,1016.52
2023-04-30T03:20:06.006Z,1016.50
2023-04-30T03:21:05.990Z,1016.52
2023-04-30T03:22:05.958Z,1016.50
2023-04-30T03:23:05.945Z,1016.51
2023-04-30T03:24:05.953Z,1016.50
2023-04-30T03:25:05.939Z,1016.50
2023-04-30T03:26:05.920Z,1016.53
2023-04-30T03:27:05.919Z,1016.56
2023-04-30T03:28:05.909Z,1016.58
2023-04-30T03:29:05.989Z,1016.58
2023-04-30T03:30:05.884Z,1016.60
2023-04-30T03:31:05.928Z,1016.57
2023-04-30T03:32:05.867Z,1016.62
2023-04-30T03:33:05.921Z,1016.61
2023-04-30T03:34:05.827Z,1016.59
2023-04-30T03:35:05.823Z,1016.67
2023-04-30T03:36:05.807Z,1016.61
2023-04-30T03:37:05.828Z,1016.63
2023-04-30T03:38:05.797Z,1016.62
2023-04-30T03:39:05.777Z,1016.61
2023-04-30T03:40:05.762Z,1016.61
2023-04-30T03:41:05.798Z,1016.63
2023-04-30T03:42:05.776Z,1016.61
2023-04-30T03:43:05.764Z,1016.64
2023-04-30T03:44:05.713Z,1016.64
2023-04-30T03:45:05.719Z,1016.68
2023-04-30T03:46:05.771Z,1016.66
2023-04-30T03:47:05.682Z,1016.72
2023-04-30T03:48:05.732Z,1016.68
2023-04-30T03:49:05.668Z,1016.70
2023-04-30T03:50:05.706Z,1016.71
2023-04-30T03:51:05.638Z,1016.77
2023-04-30T03:52:05.648Z,1016.80
2023-04-30T03:53:05.671Z,1016.79
2023-04-30T03:54:05.624Z,1016.79
2023-04-30T03:55:05.595Z,1016.83
2023-04-30T03:56:05.583Z,1016.82
2023-04-30T03:57:05.647Z,1016.79
2023-04-30T03:58:05.607Z,1016.79
2023-04-30T03:59:05.556Z,1016.81
2023-04-30T04:00:05.549Z,1016.83
2023-04-30T04:01:05.525Z,1016.83
2023-04-30T04:02:06.390Z,1016.83
2023-04-30T04:03:05.636Z,1016.84
2023-04-30T04:04:05.584Z,1016.81
2023-04-30T04:05:05.487Z,1016.88
2023-04-30T04:06:05.596Z,1016.87
2023-04-30T04:07:05.459Z,1016.95
2023-04-30T04:08:05.464Z,1016.92
2023-04-30T04:09:05.489Z,1016.92
2023-04-30T04:10:05.426Z,1016.95
2023-04-30T04:11:05.424Z,1016.94
2023-04-30T04:12:05.477Z,1016.98
2023-04-30T04:13:05.417Z,1016.98
2023-04-30T04:14:05.892Z,1016.97
2023-04-30T04:15:05.398Z,1017.01
2023-04-30T04:16:05.431Z,1017.02
2023-04-30T04:17:05.371Z,1016.99
2023-04-30T04:18:05.354Z,1017.01
2023-04-30T04:19:05.349Z,1017.01
2023-04-30T04:20:05.316Z,1017.03
2023-04-30T04:21:05.315Z,1017.03
2023-04-30T04:22:05.293Z,1017.02
2023-04-30T04:23:05.348Z,1017.02
2023-04-30T04:24:05.272Z,1017.03
2023-04-30T04:25:05.295Z,1017.00
2023-04-30T04:26:05.270Z,1017.02
2023-04-30T04:27:05.242Z,1017.05
2023-04-30T04:28:05.262Z,1017.03
2023-04-30T04:29:05.220Z,1017.06
2023-04-30T04:30:05.216Z,1017.08
2023-04-30T04:31:05.198Z,1017.07
2023-04-30T04:32:05.230Z,1017.09
2023-04-30T04:33:05.248Z,1017.11
2023-04-30T04:34:05.159Z,1017.08
2023-04-30T04:35:05.151Z,1017.07
2023-04-30T04:36:05.187Z,1017.07
2023-04-30T04:37:05.171Z,1017.13
2023-04-30T04:38:05.370Z,1017.13
2023-04-30T04:39:05.127Z,1017.17
2023-04-30T04:40:05.129Z,1017.16
2023-04-30T04:41:05.119Z,1017.17
2023-04-30T04:42:05.224Z,1017.18
2023-04-30T04:43:05.061Z,1017.20
2023-04-30T04:44:05.049Z,1017.25
2023-04-30T04:45:05.034Z,1017.22
2023-04-30T04:46:05.065Z,1017.24
2023-04-30T04:47:05.016Z,1017.24
2023-04-30T04:48:05.224Z,1017.28
2023-04-30T04:49:05.020Z,1017.29
2023-04-30T04:50:05.174Z,1017.27
2023-04-30T04:51:04.994Z,1017.30
2023-04-30T04:52:04.967Z,1017.27
2023-04-30T04:53:04.948Z,1017.30
2023-04-30T04:54:04.960Z,1017.30
2023-04-30T04:55:04.954Z,1017.34
2023-04-30T04:56:04.945Z,1017.30
2023-04-30T04:57:04.935Z,1017.34
2023-04-30T04:58:04.888Z,1017.42
2023-04-30T04:59:04.898Z,1017.42
2023-04-30T05:00:04.867Z,1017.44
2023-04-30T05:01:04.864Z,1017.44
2023-04-30T05:02:04.942Z,1017.55
2023-04-30T05:03:04.911Z,1017.52
2023-04-30T05:04:05.003Z,1017.50
2023-04-30T05:05:04.829Z,1017.57
2023-04-30T05:06:04.888Z,1017.50
2023-04-30T05:07:04.801Z,1017.51
2023-04-30T05:08:04.778Z,1017.55
2023-04-30T05:09:04.770Z,1017.57
2023-04-30T05:10:04.783Z,1017.59
2023-04-30T05:11:04.749Z,1017.60
2023-04-30T05:12:04.756Z,1017.61
2023-04-30T05:13:04.742Z,1017.62
2023-04-30T05:14:04.713Z,1017.61
2023-04-30T05:15:04.719Z,1017.62
2023-04-30T05:16:04.789Z,1017.63
2023-04-30T05:17:04.775Z,1017.65
2023-04-30T05:18:04.720Z,1017.70
2023-04-30T05:19:04.765Z,1017.73
2023-04-30T05:20:04.658Z,1017.75
2023-04-30T05:21:04.637Z,1017.79
2023-04-30T05:22:04.623Z,1017.75
2023-04-30T05:23:04.613Z,1017.74
2023-04-30T05:24:04.635Z,1017.81
2023-04-30T05:25:04.591Z,1017.77
2023-04-30T05:26:04.586Z,1017.82
2023-04-30T05:27:04.563Z,1017.84
2023-04-30T05:28:04.556Z,1017.82
2023-04-30T05:29:04.569Z,1017.82
2023-04-30T05:30:04.566Z,1017.82
2023-04-30T05:31:04.535Z,1017.84
2023-04-30T05:32:04.554Z,1017.82
2023-04-30T05:33:04.535Z,1017.86
2023-04-30T05:34:04.496Z,1017.80
2023-04-30T05:35:04.514Z,1017.83
2023-04-30T05:36:05.383Z,1017.89
2023-04-30T05:37:04.453Z,1017.83
2023-04-30T05:38:04.474Z,1017.83
2023-04-30T05:39:04.438Z,1017.84
2023-04-30T05:40:04.443Z,1017.85
2023-04-30T05:41:04.431Z,1017.90
2023-04-30T05:42:04.403Z,1017.87
2023-04-30T05:43:04.395Z,1017.93
2023-04-30T05:44:04.381Z,1017.92
2023-04-30T05:45:04.420Z,1017.89
2023-04-30T05:46:04.410Z,1017.93
2023-04-30T05:47:04.355Z,1017.97
2023-04-30T05:48:04.360Z,1017.98
2023-04-30T05:49:04.339Z,1017.93
2023-04-30T05:50:04.345Z,1017.99
2023-04-30T05:51:04.300Z,1018.00
2023-04-30T05:52:04.286Z,1018.04
2023-04-30T05:53:04.301Z,1017.98
2023-04-30T05:54:04.293Z,1018.02
2023-04-30T05:55:12.056Z,1017.99
2023-04-30T05:56:04.247Z,1018.04
2023-04-30T05:57:04.937Z,1018.00
2023-04-30T05:58:04.226Z,1018.03
2023-04-30T05:59:04.230Z,1018.00
2023-04-30T06:00:04.224Z,1018.03
2023-04-30T06:01:04.209Z,1018.06
2023-04-30T06:02:04.329Z,1018.08
2023-04-30T06:03:04.231Z,1018.00
2023-04-30T06:04:04.176Z,1018.09
2023-04-30T06:05:04.254Z,1018.06
2023-04-30T06:06:04.171Z,1018.07
2023-04-30T06:07:04.120Z,1017.99
2023-04-30T06:08:04.118Z,1018.04
2023-04-30T06:09:04.103Z,1018.05
2023-04-30T06:10:04.115Z,1018.04
2023-04-30T06:11:04.104Z,1018.08
2023-04-30T06:12:04.084Z,1018.14
2023-04-30T06:13:04.084Z,1018.09
2023-04-30T06:14:04.060Z,1018.18
2023-04-30T06:15:04.060Z,1018.16
2023-04-30T06:16:04.093Z,1018.07
2023-04-30T06:17:04.947Z,1018.10
2023-04-30T06:18:04.032Z,1018.19
2023-04-30T06:19:04.024Z,1018.13
2023-04-30T06:20:03.982Z,1018.19
2023-04-30T06:21:03.977Z,1018.20
2023-04-30T06:22:03.961Z,1018.23
2023-04-30T06:23:04.084Z,1018.22
2023-04-30T06:24:03.966Z,1018.21
2023-04-30T06:25:03.956Z,1018.25
2023-04-30T06:26:04.064Z,1018.19
2023-04-30T06:27:03.904Z,1018.24
2023-04-30T06:28:03.891Z,1018.26
2023-04-30T06:29:03.880Z,1018.28
2023-04-30T06:30:03.885Z,1018.24
2023-04-30T06:31:03.905Z,1018.29
2023-04-30T06:32:04.292Z,1018.32
2023-04-30T06:33:04.086Z,1018.27
2023-04-30T06:34:03.837Z,1018.31
2023-04-30T06:35:03.832Z,1018.36
2023-04-30T06:36:03.801Z,1018.34
2023-04-30T06:37:03.803Z,1018.32
2023-04-30T06:38:03.848Z,1018.30
2023-04-30T06:39:03.852Z,1018.30
2023-04-30T06:40:03.780Z,1018.26
2023-04-30T06:41:03.745Z,1018.22
2023-04-30T06:42:03.737Z,1018.28
2023-04-30T06:43:03.718Z,1018.28
2023-04-30T06:44:03.748Z,1018.25
2023-04-30T06:45:03.755Z,1018.30
2023-04-30T06:46:03.724Z,1018.29
2023-04-30T06:47:03.692Z,1018.33
2023-04-30T06:48:03.707Z,1018.30
2023-04-30T06:49:03.679Z,1018.30
2023-04-30T06:50:03.703Z,1018.25
2023-04-30T06:51:03.640Z,1018.28
2023-04-30T06:52:03.633Z,1018.27
2023-04-30T06:53:03.609Z,1018.35
2023-04-30T06:54:03.599Z,1018.33
2023-04-30T06:55:03.580Z,1018.38
2023-04-30T06:56:03.590Z,1018.33
2023-04-30T06:57:03.563Z,1018.31
2023-04-30T06:58:03.555Z,1018.33
2023-04-30T06:59:03.543Z,1018.31
2023-04-30T07:00:03.550Z,1018.29
2023-04-30T07:01:03.596Z,1018.33
2023-04-30T07:02:03.512Z,1018.31
2023-04-30T07:03:03.691Z,1018.34
2023-04-30T07:04:03.484Z,1018.29
2023-04-30T07:05:03.530Z,1018.29
2023-04-30T07:06:03.507Z,1018.33
2023-04-30T07:07:03.470Z,1018.32
2023-04-30T07:08:03.436Z,1018.34
2023-04-30T07:09:03.468Z,1018.30
2023-04-30T07:10:03.420Z,1018.36
2023-04-30T07:11:03.404Z,1018.32
2023-04-30T07:12:03.395Z,1018.32
2023-04-30T07:13:03.379Z,1018.27
2023-04-30T07:14:03.405Z,1018.34
2023-04-30T07:15:03.397Z,1018.32
2023-04-30T07:16:03.369Z,1018.32
2023-04-30T07:17:03.341Z,1018.41
2023-04-30T07:18:03.384Z,1018.35
2023-04-30T07:19:03.317Z,1018.41
2023-04-30T07:20:03.334Z,1018.38
2023-04-30T07:21:03.366Z,1018.44
2023-04-30T07:22:03.287Z,1018.39
2023-04-30T07:23:03.270Z,1018.46
2023-04-30T07:24:03.276Z,1018.45
2023-04-30T07:25:03.248Z,1018.39
2023-04-30T07:26:03.236Z,1018.43
2023-04-30T07:27:03.224Z,1018.39
2023-04-30T07:28:03.946Z,1018.47
2023-04-30T07:29:03.209Z,1018.48
2023-04-30T07:30:03.198Z,1018.49
2023-04-30T07:31:03.205Z,1018.51
2023-04-30T07:32:03.374Z,1018.51
2023-04-30T07:33:03.298Z,1018.44
2023-04-30T07:34:03.160Z,1018.51
2023-04-30T07:35:03.139Z,1018.52
2023-04-30T07:36:03.149Z,1018.55
2023-04-30T07:37:03.320Z,1018.53
2023-04-30T07:38:03.118Z,1018.45
2023-04-30T07:39:03.094Z,1018.54
2023-04-30T07:40:03.145Z,1018.45
2023-04-30T07:41:03.094Z,1018.44
2023-04-30T07:42:03.065Z,1018.44
2023-04-30T07:43:03.053Z,1018.48
2023-04-30T07:44:03.041Z,1018.52
2023-04-30T07:45:03.042Z,1018.53
2023-04-30T07:46:03.049Z,1018.51
2023-04-30T07:47:03.009Z,1018.52
2023-04-30T07:48:03.105Z,1018.56
2023-04-30T07:49:02.986Z,1018.56
2023-04-30T07:50:02.980Z,1018.59
2023-04-30T07:51:02.986Z,1018.57
2023-04-30T07:52:02.952Z,1018.57
2023-04-30T07:53:02.964Z,1018.54
2023-04-30T07:54:02.948Z,1018.60
2023-04-30T07:55:02.948Z,1018.68
2023-04-30T07:56:02.912Z,1018.36
2023-04-30T07:57:02.912Z,1018.22
2023-04-30T07:58:02.960Z,1018.70
2023-04-30T07:59:02.893Z,1018.69
2023-04-30T08:00:02.891Z,1018.70
2023-04-30T08:01:02.860Z,1018.68
2023-04-30T08:02:02.890Z,1018.60
2023-04-30T08:03:02.900Z,1018.72
2023-04-30T08:04:02.925Z,1018.68
2023-04-30T08:05:02.813Z,1018.72
2023-04-30T08:06:02.909Z,1018.74
2023-04-30T08:07:02.817Z,1018.73
2023-04-30T08:08:02.791Z,1018.74
2023-04-30T08:09:02.789Z,1018.75
2023-04-30T08:10:02.782Z,1018.74
2023-04-30T08:11:02.902Z,1018.77
2023-04-30T08:12:02.753Z,1018.72
2023-04-30T08:13:02.731Z,1018.74
2023-04-30T08:14:02.722Z,1018.76
2023-04-30T08:15:02.709Z,1018.76
2023-04-30T08:16:02.734Z,1018.81
2023-04-30T08:17:02.740Z,1018.86
2023-04-30T08:18:02.800Z,1018.86
2023-04-30T08:19:02.670Z,1018.87
2023-04-30T08:20:02.661Z,1018.82
2023-04-30T08:21:02.650Z,1018.87
2023-04-30T08:22:02.656Z,1018.83
2023-04-30T08:23:02.631Z,1018.91
2023-04-30T08:24:02.611Z,1018.88
2023-04-30T08:25:02.619Z,1018.94
2023-04-30T08:26:02.593Z,1018.89
2023-04-30T08:27:02.601Z,1018.94
2023-04-30T08:28:02.572Z,1018.96
2023-04-30T08:29:02.591Z,1019.05
2023-04-30T08:30:02.559Z,1018.91
2023-04-30T08:31:02.536Z,1018.96
2023-04-30T08:32:02.562Z,1018.98
2023-04-30T08:33:03.502Z,1019.00
2023-04-30T08:34:02.524Z,1019.05
2023-04-30T08:35:02.507Z,1018.94
2023-04-30T08:36:02.480Z,1019.01
2023-04-30T08:37:02.493Z,1019.03
2023-04-30T08:38:02.552Z,1019.04
2023-04-30T08:39:02.464Z,1019.00
2023-04-30T08:40:02.454Z,1019.05
2023-04-30T08:41:02.451Z,1018.96
2023-04-30T08:42:02.444Z,1019.00
2023-04-30T08:43:02.552Z,1019.05
2023-04-30T08:44:02.425Z,1019.07
2023-04-30T08:45:02.440Z,1019.05
2023-04-30T08:46:02.435Z,1019.07
2023-04-30T08:47:02.385Z,1019.08
2023-04-30T08:48:02.412Z,1019.04
2023-04-30T08:49:02.375Z,1019.03
2023-04-30T08:50:02.340Z,1019.08
2023-04-30T08:51:02.322Z,1019.10
2023-04-30T08:52:02.381Z,1019.08
2023-04-30T08:53:02.326Z,1019.05
2023-04-30T08:54:02.309Z,1019.09
2023-04-30T08:55:02.288Z,1019.09
2023-04-30T08:56:02.273Z,1019.06
2023-04-30T08:57:02.293Z,1019.06
2023-04-30T08:58:02.273Z,1019.10
2023-04-30T08:59:02.240Z,1019.06
2023-04-30T09:00:02.260Z,1019.10
2023-04-30T09:01:02.235Z,1019.08
2023-04-30T09:02:02.429Z,1019.08
2023-04-30T09:03:02.297Z,1019.08
2023-04-30T09:04:02.302Z,1019.07
2023-04-30T09:05:02.188Z,1019.07
2023-04-30T09:06:02.191Z,1019.08
2023-04-30T09:07:04.427Z,1019.14
2023-04-30T09:08:04.154Z,1019.05
2023-04-30T09:09:02.140Z,1019.04
2023-04-30T09:10:02.131Z,1019.05
2023-04-30T09:11:02.133Z,1019.14
2023-04-30T09:12:02.112Z,1019.04
2023-04-30T09:13:02.136Z,1019.14
2023-04-30T09:14:02.092Z,1019.10
2023-04-30T09:15:02.087Z,1019.22
2023-04-30T09:16:02.100Z,1019.21
2023-04-30T09:17:02.062Z,1019.24
2023-04-30T09:18:02.100Z,1019.17
2023-04-30T09:19:02.045Z,1019.18
2023-04-30T09:20:02.031Z,1019.15
2023-04-30T09:21:02.047Z,1019.17
2023-04-30T09:22:02.021Z,1019.22
2023-04-30T09:23:02.099Z,1019.23
2023-04-30T09:24:01.994Z,1019.28
2023-04-30T09:25:02.002Z,1019.25
2023-04-30T09:26:01.963Z,1019.22
2023-04-30T09:27:01.959Z,1019.24
2023-04-30T09:28:01.964Z,1019.16
2023-04-30T09:29:01.959Z,1019.20
2023-04-30T09:30:01.950Z,1019.22
2023-04-30T09:31:01.957Z,1019.18
2023-04-30T09:32:02.014Z,1019.17
2023-04-30T09:33:02.023Z,1019.19
2023-04-30T09:34:01.892Z,1019.23
2023-04-30T09:35:01.922Z,1019.21
2023-04-30T09:36:01.879Z,1019.22
2023-04-30T09:37:01.872Z,1019.18
2023-04-30T09:38:01.878Z,1019.17
2023-04-30T09:39:01.841Z,1019.23
2023-04-30T09:40:01.868Z,1019.24
2023-04-30T09:41:01.898Z,1019.15
2023-04-30T09:42:01.834Z,1019.39
2023-04-30T09:43:01.806Z,1019.35
2023-04-30T09:44:01.828Z,1019.24
2023-04-30T09:45:02.031Z,1019.28
2023-04-30T09:46:01.805Z,1019.21
2023-04-30T09:47:01.800Z,1019.31
2023-04-30T09:48:15.806Z,1019.31
2023-04-30T09:49:02.777Z,1019.30
2023-04-30T09:50:01.744Z,1019.34
2023-04-30T09:51:01.717Z,1019.25
2023-04-30T09:52:01.756Z,1019.21
2023-04-30T09:53:01.699Z,1019.28
2023-04-30T09:54:01.696Z,1019.26
2023-04-30T09:55:01.692Z,1019.20
2023-04-30T09:56:01.674Z,1019.17
2023-04-30T09:57:02.186Z,1019.05
2023-04-30T09:58:01.659Z,1019.22
2023-04-30T09:59:02.512Z,1019.10
2023-04-30T10:00:01.675Z,1019.19
2023-04-30T10:01:01.881Z,1019.14
2023-04-30T10:02:01.663Z,1019.14
2023-04-30T10:03:01.672Z,1019.15
2023-04-30T10:04:01.761Z,1019.10
2023-04-30T10:05:01.586Z,1019.14
2023-04-30T10:06:01.619Z,1019.16
2023-04-30T10:07:01.587Z,1019.16
2023-04-30T10:08:01.582Z,1019.11
2023-04-30T10:09:01.640Z,1019.10
2023-04-30T10:10:01.539Z,1019.17
2023-04-30T10:11:01.547Z,1019.11
2023-04-30T10:12:01.526Z,1019.07
2023-04-30T10:13:01.554Z,1019.12
2023-04-30T10:14:01.499Z,1019.10
2023-04-30T10:15:01.495Z,1019.02
2023-04-30T10:16:01.499Z,1019.05
2023-04-30T10:17:01.507Z,1019.07
2023-04-30T10:18:01.516Z,1019.14
2023-04-30T10:19:01.465Z,1019.12
2023-04-30T10:20:01.468Z,1019.10
2023-04-30T10:21:01.441Z,1019.10
2023-04-30T10:22:01.420Z,1019.02
2023-04-30T10:23:01.414Z,1019.08
2023-04-30T10:24:01.426Z,1019.04
2023-04-30T10:25:01.392Z,1019.07
2023-04-30T10:26:01.394Z,1019.13
2023-04-30T10:27:01.372Z,1019.16
2023-04-30T10:28:03.973Z,1019.14
2023-04-30T10:29:01.413Z,1019.15
2023-04-30T10:30:01.410Z,1019.10
2023-04-30T10:31:01.342Z,1019.11
2023-04-30T10:32:01.400Z,1019.07
2023-04-30T10:33:02.008Z,1019.01
2023-04-30T10:34:01.318Z,1019.04
2023-04-30T10:35:01.345Z,1019.01
2023-04-30T10:36:01.316Z,1018.99
2023-04-30T10:37:01.296Z,1019.03
2023-04-30T10:38:01.270Z,1019.01
2023-04-30T10:39:01.285Z,1019.01
2023-04-30T10:40:01.254Z,1018.99
2023-04-30T10:41:01.274Z,1018.96
2023-04-30T10:42:01.226Z,1018.95
2023-04-30T10:43:01.223Z,1019.03
2023-04-30T10:44:02.106Z,1019.01
2023-04-30T10:45:01.252Z,1018.97
2023-04-30T10:46:01.300Z,1018.92
2023-04-30T10:47:01.199Z,1018.86
2023-04-30T10:48:01.257Z,1018.93
2023-04-30T10:49:01.183Z,1018.86
2023-04-30T10:50:01.151Z,1018.91
2023-04-30T10:51:01.183Z,1018.86
2023-04-30T10:52:01.158Z,1018.88
2023-04-30T10:53:01.129Z,1018.92
2023-04-30T10:54:01.149Z,1018.89
2023-04-30T10:55:01.108Z,1018.93
2023-04-30T10:56:01.109Z,1018.91
2023-04-30T10:57:01.085Z,1018.91
2023-04-30T10:58:01.109Z,1018.87
2023-04-30T10:59:01.095Z,1018.89
2023-04-30T11:00:01.119Z,1018.91
2023-04-30T11:01:01.140Z,1018.92
2023-04-30T11:02:01.253Z,1018.89
2023-04-30T11:03:01.058Z,1018.86
2023-04-30T11:04:01.191Z,1018.88
2023-04-30T11:05:01.055Z,1018.89
2023-04-30T11:06:01.056Z,1018.93
2023-04-30T11:07:00.996Z,1018.93
2023-04-30T11:08:00.987Z,1018.83
2023-04-30T11:09:01.012Z,1018.75
2023-04-30T11:10:00.969Z,1018.79
2023-04-30T11:11:00.953Z,1018.78
2023-04-30T11:12:00.955Z,1018.72
2023-04-30T11:13:01.737Z,1018.78
2023-04-30T11:14:01.030Z,1018.73
2023-04-30T11:15:00.938Z,1018.79
2023-04-30T11:16:00.932Z,1018.70
2023-04-30T11:17:00.897Z,1018.70
2023-04-30T11:18:01.048Z,1018.70
2023-04-30T11:19:00.920Z,1018.73
2023-04-30T11:20:00.874Z,1018.76
2023-04-30T11:21:00.890Z,1018.75
2023-04-30T11:22:00.857Z,1018.69
2023-04-30T11:23:00.856Z,1018.78
2023-04-30T11:24:00.879Z,1018.70
2023-04-30T11:25:00.826Z,1018.68
2023-04-30T11:26:00.818Z,1018.64
2023-04-30T11:27:00.823Z,1018.70
2023-04-30T11:28:00.800Z,1018.71
2023-04-30T11:29:00.842Z,1018.70
2023-04-30T11:30:00.837Z,1018.73
2023-04-30T11:31:00.812Z,1018.69
2023-04-30T11:32:00.821Z,1018.68
2023-04-30T11:33:00.861Z,1018.65
2023-04-30T11:34:00.764Z,1018.67
2023-04-30T11:35:00.733Z,1018.62
2023-04-30T11:36:00.734Z,1018.66
2023-04-30T11:37:00.882Z,1018.70
2023-04-30T11:38:00.701Z,1018.70
2023-04-30T11:39:00.848Z,1018.71
2023-04-30T11:40:00.712Z,1018.72
2023-04-30T11:41:00.691Z,1018.69
2023-04-30T11:42:00.730Z,1018.74
2023-04-30T11:43:00.668Z,1018.75
2023-04-30T11:44:00.661Z,1018.71
2023-04-30T11:45:00.655Z,1018.73
2023-04-30T11:46:00.632Z,1018.61
2023-04-30T11:47:00.717Z,1018.67
2023-04-30T11:48:00.682Z,1018.68
2023-04-30T11:49:00.609Z,1018.63
2023-04-30T11:50:00.616Z,1018.69
2023-04-30T11:51:00.578Z,1018.66
2023-04-30T11:52:00.585Z,1018.66
2023-04-30T11:53:00.587Z,1018.60
2023-04-30T11:54:00.586Z,1018.60
2023-04-30T11:55:00.563Z,1018.58
2023-04-30T11:56:10.059Z,1018.57
2023-04-30T11:57:00.524Z,1018.55
2023-04-30T11:58:00.519Z,1018.56
2023-04-30T11:59:00.511Z,1018.51
2023-04-30T12:00:00.514Z,1018.51
2023-04-30T12:01:00.487Z,1018.50
2023-04-30T12:02:00.494Z,1018.52
2023-04-30T12:03:00.783Z,1018.52
2023-04-30T12:04:00.641Z,1018.50
2023-04-30T12:05:00.477Z,1018.49